메인 페이지
METAR-TAF:

METAR-TAF

공항 :

프스코프, 러시아

위도: 57-47-06N, 경도: 028-23-54E, 고도: 47m

현재 날씨관측

예보는 14분 전, 06:30시(UTC)에 발표되었습니다.
남남서6kt풍과 서남서풍을 오가는
온도 18°C
습도 88%
기압 1014 hPa
시정 10km 이상
고도 1500ft 상공 구름 많음
고도 4900ft 상공 구름 많음

METAR: ULOO 190630Z 21003MPS 190V250 9999 BKN015 BKN049 18/16 Q1014 R19/090066 NOSIG RMK QFE756

시각: 09:44 (06:44 UTC)

예보

예보는 1 시간 45분 전, 04:59시(UTC)에 발표되었습니다.
예보 대상 시간: 19일 06시부터 19일 15시까지 (UTC)
서남서6kt
시정 10km 이상
고도 2000ft 상공 구름 보통
일시적
19일 06시부터 19일 09시까지 (UTC)
시정: 4000m
고도 1600ft 상공 구름 많음, 적란운.
약한소나기, 박무
전환 중
19일 07시부터 19일 09시까지 (UTC)
10kt, 순간 최대 풍속 19kt
일시적
19일 09시부터 19일 15시까지 (UTC)
여러 방향의 바람 27kt
시정: 1500m
고도 1600ft 상공 구름 많음, 적란운.
뇌우, 비, 스콜,

TAF: ULOO 190459Z 1906/1915 24003MPS 9999 SCT020 TEMPO 1906/1909 4000 -SHRA BR BKN016CB BECMG 1907/1909 26005G10MPS TEMPO 1909/1915 VRB14MPS 1500 TSRA SQ BKN016CB

4,000개 이상의 공항 관측 자료 및 예보 (METAR 및 TAF 보고).

지도상에서 검색 가능한 기상관측소가 노란 점과 빨간 점으로 표시되어 있습니다.

기상관측소 명을 보려면 표시 위로 마우스를 이동하세요.

날씨 관측과 예보를 보려면 클릭하세요.

지도 변경 : 확대하려면 엑스 표시가 있는 녹색 버튼, 축소하려면 빼기 표시가 있는 녹색 버튼, 다음 페이지의 지도를 보려면 녹색 화살표를 클릭하세요.


METAR-TAF: